sensor_id;sensor_type;location;lat;lon;timestamp;pressure;altitude;pressure_sealevel;temperature;humidity
29909;BME280;36247;51.952;6.146;2024-02-23T00:00:04;98643.44;;;4.34;100.00
29909;BME280;36247;51.952;6.146;2024-02-23T00:02:31;98647.81;;;4.33;100.00
29909;BME280;36247;51.952;6.146;2024-02-23T00:04:57;98651.28;;;4.29;100.00
29909;BME280;36247;51.952;6.146;2024-02-23T00:07:22;98647.78;;;4.26;100.00
29909;BME280;36247;51.952;6.146;2024-02-23T00:09:48;98674.88;;;4.31;100.00
29909;BME280;36247;51.952;6.146;2024-02-23T00:12:13;98664.41;;;4.37;100.00
29909;BME280;36247;51.952;6.146;2024-02-23T00:14:39;98671.41;;;4.33;100.00
29909;BME280;36247;51.952;6.146;2024-02-23T00:17:04;98679.31;;;4.46;100.00
29909;BME280;36247;51.952;6.146;2024-02-23T00:19:33;98681.94;;;4.46;100.00
29909;BME280;36247;51.952;6.146;2024-02-23T00:21:58;98689.81;;;4.52;100.00
29909;BME280;36247;51.952;6.146;2024-02-23T00:24:27;98690.72;;;4.55;100.00
29909;BME280;36247;51.952;6.146;2024-02-23T00:26:53;98682.88;;;4.66;100.00
29909;BME280;36247;51.952;6.146;2024-02-23T00:29:19;98691.59;;;4.64;100.00
29909;BME280;36247;51.952;6.146;2024-02-23T00:31:44;98682.84;;;4.55;100.00
29909;BME280;36247;51.952;6.146;2024-02-23T00:34:13;98689.84;;;4.58;100.00
29909;BME280;36247;51.952;6.146;2024-02-23T00:36:40;98698.59;;;4.58;100.00
29909;BME280;36247;51.952;6.146;2024-02-23T00:39:07;98706.41;;;4.51;100.00
29909;BME280;36247;51.952;6.146;2024-02-23T00:41:33;98698.59;;;4.54;100.00
29909;BME280;36247;51.952;6.146;2024-02-23T00:43:59;98709.94;;;4.50;100.00
29909;BME280;36247;51.952;6.146;2024-02-23T00:46:24;98708.16;;;4.50;100.00
29909;BME280;36247;51.952;6.146;2024-02-23T00:48:50;98710.78;;;4.47;100.00
29909;BME280;36247;51.952;6.146;2024-02-23T00:51:15;98708.16;;;4.50;100.00
29909;BME280;36247;51.952;6.146;2024-02-23T00:53:41;98720.41;;;4.53;100.00
29909;BME280;36247;51.952;6.146;2024-02-23T00:56:06;98723.91;;;4.52;100.00
29909;BME280;36247;51.952;6.146;2024-02-23T00:58:32;98726.53;;;4.55;100.00
29909;BME280;36247;51.952;6.146;2024-02-23T01:00:57;98732.59;;;4.40;100.00
29909;BME280;36247;51.952;6.146;2024-02-23T01:03:22;98740.31;;;4.08;100.00
29909;BME280;36247;51.952;6.146;2024-02-23T01:05:48;98748.19;;;4.15;100.00
29909;BME280;36247;51.952;6.146;2024-02-23T01:08:13;98736.09;;;4.39;100.00
29909;BME280;36247;51.952;6.146;2024-02-23T01:10:38;98751.88;;;4.47;100.00
29909;BME280;36247;51.952;6.146;2024-02-23T01:13:04;98739.63;;;4.49;100.00
29909;BME280;36247;51.952;6.146;2024-02-23T01:15:30;98741.41;;;4.53;100.00
29909;BME280;36247;51.952;6.146;2024-02-23T01:17:56;98733.53;;;4.56;100.00
29909;BME280;36247;51.952;6.146;2024-02-23T01:20:21;98747.59;;;4.70;100.00
29909;BME280;36247;51.952;6.146;2024-02-23T01:22:47;98749.31;;;4.65;100.00
29909;BME280;36247;51.952;6.146;2024-02-23T01:25:12;98759.81;;;4.71;100.00
29909;BME280;36247;51.952;6.146;2024-02-23T01:27:41;98756.34;;;4.72;100.00
29909;BME280;36247;51.952;6.146;2024-02-23T01:30:06;98750.22;;;4.73;100.00
29909;BME280;36247;51.952;6.146;2024-02-23T01:32:32;98765.97;;;4.75;100.00
29909;BME280;36247;51.952;6.146;2024-02-23T01:34:57;98759.00;;;4.82;100.00
29909;BME280;36247;51.952;6.146;2024-02-23T01:37:23;98754.59;;;4.81;100.00
29909;BME280;36247;51.952;6.146;2024-02-23T01:39:48;98773.00;;;4.82;100.00
29909;BME280;36247;51.952;6.146;2024-02-23T01:42:13;98763.34;;;4.76;100.00
29909;BME280;36247;51.952;6.146;2024-02-23T01:44:39;98768.63;;;4.87;100.00
29909;BME280;36247;51.952;6.146;2024-02-23T01:47:04;98773.00;;;4.84;100.00
29909;BME280;36247;51.952;6.146;2024-02-23T01:49:30;98762.53;;;4.85;100.00
29909;BME280;36247;51.952;6.146;2024-02-23T01:51:58;98789.59;;;4.81;100.00
29909;BME280;36247;51.952;6.146;2024-02-23T01:54:24;98780.84;;;4.81;100.00
29909;BME280;36247;51.952;6.146;2024-02-23T01:56:50;98782.59;;;4.77;100.00
29909;BME280;36247;51.952;6.146;2024-02-23T01:59:16;98780.88;;;4.85;100.00
29909;BME280;36247;51.952;6.146;2024-02-23T02:01:45;98802.72;;;4.83;100.00
29909;BME280;36247;51.952;6.146;2024-02-23T02:04:11;98786.09;;;4.79;100.00
29909;BME280;36247;51.952;6.146;2024-02-23T02:06:36;98788.69;;;4.76;100.00
29909;BME280;36247;51.952;6.146;2024-02-23T02:09:02;98804.44;;;4.79;100.00
29909;BME280;36247;51.952;6.146;2024-02-23T02:11:27;98814.94;;;4.79;100.00
29909;BME280;36247;51.952;6.146;2024-02-23T02:13:53;98807.06;;;4.79;100.00
29909;BME280;36247;51.952;6.146;2024-02-23T02:16:18;98807.06;;;4.74;100.00
29909;BME280;36247;51.952;6.146;2024-02-23T02:18:44;98813.19;;;4.73;100.00
29909;BME280;36247;51.952;6.146;2024-02-23T02:21:12;98807.94;;;4.70;100.00
29909;BME280;36247;51.952;6.146;2024-02-23T02:23:38;98809.66;;;4.74;100.00
29909;BME280;36247;51.952;6.146;2024-02-23T02:26:03;98818.44;;;4.75;100.00
29909;BME280;36247;51.952;6.146;2024-02-23T02:28:29;98810.59;;;4.80;100.00
29909;BME280;36247;51.952;6.146;2024-02-23T02:30:55;98813.22;;;4.80;100.00
29909;BME280;36247;51.952;6.146;2024-02-23T02:33:21;98803.59;;;4.85;100.00
29909;BME280;36247;51.952;6.146;2024-02-23T02:35:47;98818.50;;;4.87;100.00
29909;BME280;36247;51.952;6.146;2024-02-23T02:38:13;98816.72;;;4.83;100.00
29909;BME280;36247;51.952;6.146;2024-02-23T02:40:38;98819.38;;;4.91;100.00
29909;BME280;36247;51.952;6.146;2024-02-23T02:43:04;98819.34;;;4.88;100.00
29909;BME280;36247;51.952;6.146;2024-02-23T02:45:31;98829.00;;;4.93;100.00
29909;BME280;36247;51.952;6.146;2024-02-23T02:47:56;98824.66;;;4.97;100.00
29909;BME280;36247;51.952;6.146;2024-02-23T02:50:22;98822.00;;;4.95;100.00
29909;BME280;36247;51.952;6.146;2024-02-23T02:52:47;98808.88;;;4.89;100.00
29909;BME280;36247;51.952;6.146;2024-02-23T02:55:12;98815.03;;;4.96;100.00
29909;BME280;36247;51.952;6.146;2024-02-23T02:57:38;98838.66;;;4.98;100.00
29909;BME280;36247;51.952;6.146;2024-02-23T03:00:04;98832.56;;;5.06;100.00
29909;BME280;36247;51.952;6.146;2024-02-23T03:02:33;98833.41;;;4.99;100.00
29909;BME280;36247;51.952;6.146;2024-02-23T03:04:59;98823.75;;;4.95;100.00
29909;BME280;36247;51.952;6.146;2024-02-23T03:07:24;98848.22;;;4.91;100.00
29909;BME280;36247;51.952;6.146;2024-02-23T03:09:50;98829.88;;;4.95;100.00
29909;BME280;36247;51.952;6.146;2024-02-23T03:12:16;98836.84;;;4.83;100.00
29909;BME280;36247;51.952;6.146;2024-02-23T03:14:41;98837.69;;;4.79;100.00
29909;BME280;36247;51.952;6.146;2024-02-23T03:17:07;98821.94;;;4.74;100.00
29909;BME280;36247;51.952;6.146;2024-02-23T03:19:35;98851.63;;;4.71;100.00
29909;BME280;36247;51.952;6.146;2024-02-23T03:22:00;98835.88;;;4.71;100.00
29909;BME280;36247;51.952;6.146;2024-02-23T03:24:26;98849.00;;;4.73;100.00
29909;BME280;36247;51.952;6.146;2024-02-23T03:26:51;98863.91;;;4.75;100.00
29909;BME280;36247;51.952;6.146;2024-02-23T03:29:16;98856.88;;;4.71;100.00
29909;BME280;36247;51.952;6.146;2024-02-23T03:31:42;98853.38;;;4.69;100.00
29909;BME280;36247;51.952;6.146;2024-02-23T03:34:08;98856.84;;;4.62;100.00
29909;BME280;36247;51.952;6.146;2024-02-23T03:36:34;98856.84;;;4.62;100.00
29909;BME280;36247;51.952;6.146;2024-02-23T03:39:00;98859.44;;;4.62;100.00
29909;BME280;36247;51.952;6.146;2024-02-23T03:41:25;98871.72;;;4.65;100.00
29909;BME280;36247;51.952;6.146;2024-02-23T03:43:51;98877.78;;;4.56;100.00
29909;BME280;36247;51.952;6.146;2024-02-23T03:46:16;98872.56;;;4.64;100.00
29909;BME280;36247;51.952;6.146;2024-02-23T03:48:43;98886.50;;;4.55;100.00
29909;BME280;36247;51.952;6.146;2024-02-23T03:51:09;98891.75;;;4.56;100.00
29909;BME280;36247;51.952;6.146;2024-02-23T03:53:35;98885.63;;;4.54;100.00
29909;BME280;36247;51.952;6.146;2024-02-23T03:56:00;98889.25;;;4.70;100.00
29909;BME280;36247;51.952;6.146;2024-02-23T03:58:25;98879.63;;;4.72;100.00
29909;BME280;36247;51.952;6.146;2024-02-23T04:00:51;98887.50;;;4.71;100.00
29909;BME280;36247;51.952;6.146;2024-02-23T04:03:17;98883.91;;;4.63;100.00
29909;BME280;36247;51.952;6.146;2024-02-23T04:05:42;98897.94;;;4.65;100.00
29909;BME280;36247;51.952;6.146;2024-02-23T04:08:08;98897.97;;;4.66;100.00
29909;BME280;36247;51.952;6.146;2024-02-23T04:10:33;98892.66;;;4.55;100.00
29909;BME280;36247;51.952;6.146;2024-02-23T04:12:59;98909.25;;;4.56;100.00
29909;BME280;36247;51.952;6.146;2024-02-23T04:15:24;98903.13;;;4.52;100.00
29909;BME280;36247;51.952;6.146;2024-02-23T04:17:50;98912.72;;;4.55;100.00
29909;BME280;36247;51.952;6.146;2024-02-23T04:20:15;98925.78;;;4.47;100.00
29909;BME280;36247;51.952;6.146;2024-02-23T04:22:41;98900.50;;;4.54;100.00
29909;BME280;36247;51.952;6.146;2024-02-23T04:25:06;98906.59;;;4.51;100.00
29909;BME280;36247;51.952;6.146;2024-02-23T04:27:32;98910.16;;;4.61;100.00
29909;BME280;36247;51.952;6.146;2024-02-23T04:29:57;98909.25;;;4.56;100.00
29909;BME280;36247;51.952;6.146;2024-02-23T04:32:23;98914.56;;;4.67;100.00
29909;BME280;36247;51.952;6.146;2024-02-23T04:34:48;98911.03;;;4.62;100.00
29909;BME280;36247;51.952;6.146;2024-02-23T04:37:14;98924.16;;;4.62;100.00
29909;BME280;36247;51.952;6.146;2024-02-23T04:39:39;98918.03;;;4.63;100.00
29909;BME280;36247;51.952;6.146;2024-02-23T04:42:07;98927.63;;;4.61;100.00
29909;BME280;36247;51.952;6.146;2024-02-23T04:44:34;98928.59;;;4.70;100.00
29909;BME280;36247;51.952;6.146;2024-02-23T04:46:59;98928.59;;;4.69;100.00
29909;BME280;36247;51.952;6.146;2024-02-23T04:49:25;98936.44;;;4.69;100.00
29909;BME280;36247;51.952;6.146;2024-02-23T04:51:50;98940.75;;;4.62;100.00
29909;BME280;36247;51.952;6.146;2024-02-23T04:54:16;98942.53;;;4.63;100.00
29909;BME280;36247;51.952;6.146;2024-02-23T04:56:41;98951.22;;;4.59;100.00
29909;BME280;36247;51.952;6.146;2024-02-23T04:59:06;98949.44;;;4.55;100.00
29909;BME280;36247;51.952;6.146;2024-02-23T05:01:38;98955.53;;;4.51;100.00
29909;BME280;36247;51.952;6.146;2024-02-23T05:04:04;98966.94;;;4.56;100.00
29909;BME280;36247;51.952;6.146;2024-02-23T05:06:30;98953.88;;;4.61;100.00
29909;BME280;36247;51.952;6.146;2024-02-23T05:08:55;98961.72;;;4.61;100.00
29909;BME280;36247;51.952;6.146;2024-02-23T05:11:21;98961.69;;;4.56;100.00
29909;BME280;36247;51.952;6.146;2024-02-23T05:13:47;98968.78;;;4.68;100.00
29909;BME280;36247;51.952;6.146;2024-02-23T05:16:14;98963.53;;;4.65;100.00
29909;BME280;36247;51.952;6.146;2024-02-23T05:18:39;98960.97;;;4.74;100.00
29909;BME280;36247;51.952;6.146;2024-02-23T05:21:05;98952.22;;;4.75;100.00
29909;BME280;36247;51.952;6.146;2024-02-23T05:23:31;98959.19;;;4.73;100.00
29909;BME280;36247;51.952;6.146;2024-02-23T05:25:56;98960.06;;;4.70;100.00
29909;BME280;36247;51.952;6.146;2024-02-23T05:28:21;98938.25;;;4.81;100.00
29909;BME280;36247;51.952;6.146;2024-02-23T05:30:47;98948.72;;;4.79;100.00
29909;BME280;36247;51.952;6.146;2024-02-23T05:33:12;98942.66;;;4.86;100.00
29909;BME280;36247;51.952;6.146;2024-02-23T05:35:38;98940.91;;;4.84;100.00
29909;BME280;36247;51.952;6.146;2024-02-23T05:38:03;98937.41;;;4.85;100.00
29909;BME280;36247;51.952;6.146;2024-02-23T05:40:31;98941.81;;;4.89;100.00
29909;BME280;36247;51.952;6.146;2024-02-23T05:42:58;98940.97;;;4.90;100.00
29909;BME280;36247;51.952;6.146;2024-02-23T05:45:23;98955.00;;;5.01;100.00
29909;BME280;36247;51.952;6.146;2024-02-23T05:47:49;98949.75;;;4.98;100.00
29909;BME280;36247;51.952;6.146;2024-02-23T05:50:14;98939.25;;;4.98;100.00
29909;BME280;36247;51.952;6.146;2024-02-23T05:52:40;98939.22;;;4.95;100.00
29909;BME280;36247;51.952;6.146;2024-02-23T05:55:06;98939.28;;;5.04;100.00
29909;BME280;36247;51.952;6.146;2024-02-23T05:57:31;98944.50;;;4.98;100.00
29909;BME280;36247;51.952;6.146;2024-02-23T05:59:57;98948.06;;;5.06;100.00
29909;BME280;36247;51.952;6.146;2024-02-23T06:02:22;98938.44;;;5.13;100.00
29909;BME280;36247;51.952;6.146;2024-02-23T06:04:48;98950.69;;;5.09;100.00
29909;BME280;36247;51.952;6.146;2024-02-23T06:07:14;98940.19;;;5.11;100.00
29909;BME280;36247;51.952;6.146;2024-02-23T06:09:43;98948.94;;;5.15;100.00
29909;BME280;36247;51.952;6.146;2024-02-23T06:12:08;98935.81;;;5.11;100.00
29909;BME280;36247;51.952;6.146;2024-02-23T06:14:34;98944.63;;;5.23;100.00
29909;BME280;36247;51.952;6.146;2024-02-23T06:17:00;98935.84;;;5.19;100.00
29909;BME280;36247;51.952;6.146;2024-02-23T06:19:25;98946.34;;;5.16;100.00
29909;BME280;36247;51.952;6.146;2024-02-23T06:21:51;98926.28;;;5.26;100.00
29909;BME280;36247;51.952;6.146;2024-02-23T06:24:16;98942.00;;;5.21;100.00
29909;BME280;36247;51.952;6.146;2024-02-23T06:26:43;98935.91;;;5.30;100.00
29909;BME280;36247;51.952;6.146;2024-02-23T06:29:08;98926.28;;;5.27;100.00
29909;BME280;36247;51.952;6.146;2024-02-23T06:31:40;98931.53;;;5.32;100.00
29909;BME280;36247;51.952;6.146;2024-02-23T06:34:07;98922.78;;;5.30;100.00
29909;BME280;36247;51.952;6.146;2024-02-23T06:36:32;98941.19;;;5.30;100.00
29909;BME280;36247;51.952;6.146;2024-02-23T06:38:57;98928.03;;;5.30;100.00
29909;BME280;36247;51.952;6.146;2024-02-23T06:41:23;98937.66;;;5.33;100.00
29909;BME280;36247;51.952;6.146;2024-02-23T06:43:48;98956.00;;;5.25;100.00
29909;BME280;36247;51.952;6.146;2024-02-23T06:46:13;98937.63;;;5.22;100.00
29909;BME280;36247;51.952;6.146;2024-02-23T06:48:39;98935.84;;;5.19;100.00
29909;BME280;36247;51.952;6.146;2024-02-23T06:51:05;98955.97;;;5.17;100.00
29909;BME280;36247;51.952;6.146;2024-02-23T06:53:30;98958.63;;;5.22;100.00
29909;BME280;36247;51.952;6.146;2024-02-23T06:55:56;98960.44;;;5.32;100.00
29909;BME280;36247;51.952;6.146;2024-02-23T06:58:22;98957.81;;;5.34;100.00
29909;BME280;36247;51.952;6.146;2024-02-23T07:00:47;98957.84;;;5.47;100.00
29909;BME280;36247;51.952;6.146;2024-02-23T07:03:13;98957.00;;;5.53;100.00
29909;BME280;36247;51.952;6.146;2024-02-23T07:05:40;98959.66;;;5.61;100.00
29909;BME280;36247;51.952;6.146;2024-02-23T07:08:07;98963.19;;;5.61;100.00
29909;BME280;36247;51.952;6.146;2024-02-23T07:10:33;98959.66;;;5.61;100.00
29909;BME280;36247;51.952;6.146;2024-02-23T07:12:58;98959.66;;;5.65;100.00
29909;BME280;36247;51.952;6.146;2024-02-23T07:15:23;98955.31;;;5.63;100.00
29909;BME280;36247;51.952;6.146;2024-02-23T07:17:49;98968.47;;;5.68;100.00
29909;BME280;36247;51.952;6.146;2024-02-23T07:20:15;98962.31;;;5.72;100.00
29909;BME280;36247;51.952;6.146;2024-02-23T07:22:47;98971.97;;;5.77;100.00
29909;BME280;36247;51.952;6.146;2024-02-23T07:25:16;98961.47;;;5.79;100.00
29909;BME280;36247;51.952;6.146;2024-02-23T07:27:42;98958.84;;;5.79;100.00
29909;BME280;36247;51.952;6.146;2024-02-23T07:30:08;98951.84;;;5.81;100.00
29909;BME280;36247;51.952;6.146;2024-02-23T07:32:34;98972.88;;;5.81;100.00
29909;BME280;36247;51.952;6.146;2024-02-23T07:35:00;98974.63;;;5.85;100.00
29909;BME280;36247;51.952;6.146;2024-02-23T07:37:28;98973.75;;;5.88;100.00
29909;BME280;36247;51.952;6.146;2024-02-23T07:39:54;98981.66;;;5.86;100.00
29909;BME280;36247;51.952;6.146;2024-02-23T07:42:19;98981.66;;;5.92;100.00
29909;BME280;36247;51.952;6.146;2024-02-23T07:44:45;98987.81;;;5.93;100.00
29909;BME280;36247;51.952;6.146;2024-02-23T07:47:11;98980.78;;;5.95;100.00
29909;BME280;36247;51.952;6.146;2024-02-23T07:49:37;98972.91;;;5.96;100.00
29909;BME280;36247;51.952;6.146;2024-02-23T07:52:03;98972.94;;;5.98;100.00
29909;BME280;36247;51.952;6.146;2024-02-23T07:54:28;98972.94;;;5.98;100.00
29909;BME280;36247;51.952;6.146;2024-02-23T07:56:54;98972.09;;;6.10;100.00
29909;BME280;36247;51.952;6.146;2024-02-23T07:59:19;98965.06;;;6.09;100.00
29909;BME280;36247;51.952;6.146;2024-02-23T08:01:45;98978.22;;;6.10;100.00
29909;BME280;36247;51.952;6.146;2024-02-23T08:04:10;98963.34;;;6.14;100.00
29909;BME280;36247;51.952;6.146;2024-02-23T08:06:35;98965.97;;;6.09;100.00
29909;BME280;36247;51.952;6.146;2024-02-23T08:09:01;98958.09;;;6.11;100.00
29909;BME280;36247;51.952;6.146;2024-02-23T08:11:27;98954.59;;;6.18;100.00
29909;BME280;36247;51.952;6.146;2024-02-23T08:13:53;98958.09;;;6.22;100.00
29909;BME280;36247;51.952;6.146;2024-02-23T08:16:18;98954.59;;;6.23;100.00
29909;BME280;36247;51.952;6.146;2024-02-23T08:18:44;98944.09;;;6.35;100.00
29909;BME280;36247;51.952;6.146;2024-02-23T08:21:12;98942.31;;;6.42;100.00
29909;BME280;36247;51.952;6.146;2024-02-23T08:23:38;98943.19;;;6.59;100.00
29909;BME280;36247;51.952;6.146;2024-02-23T08:26:03;98935.28;;;6.67;100.00
29909;BME280;36247;51.952;6.146;2024-02-23T08:28:29;98956.34;;;6.79;100.00
29909;BME280;36247;51.952;6.146;2024-02-23T08:30:54;98943.16;;;6.95;100.00
29909;BME280;36247;51.952;6.146;2024-02-23T08:33:20;98944.06;;;6.49;100.00
29909;BME280;36247;51.952;6.146;2024-02-23T08:35:46;98932.69;;;6.58;100.00
29909;BME280;36247;51.952;6.146;2024-02-23T08:38:13;98923.88;;;6.73;100.00
29909;BME280;36247;51.952;6.146;2024-02-23T08:40:39;98919.50;;;6.68;100.00
29909;BME280;36247;51.952;6.146;2024-02-23T08:43:05;98923.91;;;6.68;100.00
29909;BME280;36247;51.952;6.146;2024-02-23T08:45:30;98919.50;;;6.79;100.00
29909;BME280;36247;51.952;6.146;2024-02-23T08:47:55;98914.22;;;6.73;100.00
29909;BME280;36247;51.952;6.146;2024-02-23T08:50:21;98917.78;;;6.66;100.00
29909;BME280;36247;51.952;6.146;2024-02-23T08:52:46;98917.78;;;6.67;100.00
29909;BME280;36247;51.952;6.146;2024-02-23T08:55:11;98911.59;;;6.75;100.00
29909;BME280;36247;51.952;6.146;2024-02-23T08:57:37;98913.34;;;6.80;100.00
29909;BME280;36247;51.952;6.146;2024-02-23T09:00:04;98910.72;;;6.94;100.00
29909;BME280;36247;51.952;6.146;2024-02-23T09:02:30;98914.13;;;7.16;100.00
29909;BME280;36247;51.952;6.146;2024-02-23T09:04:56;98904.50;;;7.03;100.00
29909;BME280;36247;51.952;6.146;2024-02-23T09:07:21;98900.94;;;7.27;100.00
29909;BME280;36247;51.952;6.146;2024-02-23T09:09:47;98913.25;;;7.14;100.00
29909;BME280;36247;51.952;6.146;2024-02-23T09:12:14;98922.00;;;7.19;100.00
29909;BME280;36247;51.952;6.146;2024-02-23T09:14:42;98919.38;;;7.19;100.00
29909;BME280;36247;51.952;6.146;2024-02-23T09:17:09;98922.94;;;7.11;100.00
29909;BME280;36247;51.952;6.146;2024-02-23T09:19:35;98922.94;;;7.12;100.00
29909;BME280;36247;51.952;6.146;2024-02-23T09:22:02;98915.94;;;7.05;100.00
29909;BME280;36247;51.952;6.146;2024-02-23T09:24:27;98917.69;;;6.98;100.00
29909;BME280;36247;51.952;6.146;2024-02-23T09:26:53;98935.31;;;6.79;100.00
29909;BME280;36247;51.952;6.146;2024-02-23T09:29:18;98930.88;;;6.92;100.00
29909;BME280;36247;51.952;6.146;2024-02-23T09:31:44;98935.28;;;6.85;100.00
29909;BME280;36247;51.952;6.146;2024-02-23T09:34:09;98925.59;;;6.92;100.00
29909;BME280;36247;51.952;6.146;2024-02-23T09:36:35;98935.22;;;7.07;100.00
29909;BME280;36247;51.952;6.146;2024-02-23T09:39:00;98930.81;;;7.15;100.00
29909;BME280;36247;51.952;6.146;2024-02-23T09:41:27;98942.25;;;7.11;100.00
29909;BME280;36247;51.952;6.146;2024-02-23T09:43:58;98925.56;;;7.07;100.00
29909;BME280;36247;51.952;6.146;2024-02-23T09:46:23;98944.88;;;7.08;100.00
29909;BME280;36247;51.952;6.146;2024-02-23T09:48:50;98938.72;;;7.04;100.00
29909;BME280;36247;51.952;6.146;2024-02-23T09:51:16;98940.53;;;6.98;100.00
29909;BME280;36247;51.952;6.146;2024-02-23T09:53:43;98942.28;;;7.03;100.00
29909;BME280;36247;51.952;6.146;2024-02-23T09:56:09;98926.47;;;6.88;100.00
29909;BME280;36247;51.952;6.146;2024-02-23T09:58:39;98938.78;;;6.89;100.00
29909;BME280;36247;51.952;6.146;2024-02-23T10:01:04;98935.28;;;6.87;100.00
29909;BME280;36247;51.952;6.146;2024-02-23T10:03:30;98931.75;;;6.86;100.00
29909;BME280;36247;51.952;6.146;2024-02-23T10:05:59;98937.91;;;6.88;100.00
29909;BME280;36247;51.952;6.146;2024-02-23T10:08:28;98940.56;;;6.84;100.00
29909;BME280;36247;51.952;6.146;2024-02-23T10:10:54;98956.34;;;6.82;100.00
29909;BME280;36247;51.952;6.146;2024-02-23T10:13:22;98957.19;;;6.94;100.00
29909;BME280;36247;51.952;6.146;2024-02-23T10:15:52;98954.56;;;6.92;100.00
29909;BME280;36247;51.952;6.146;2024-02-23T10:18:18;98952.78;;;7.06;100.00
29909;BME280;36247;51.952;6.146;2024-02-23T10:20:44;98959.81;;;6.95;100.00
29909;BME280;36247;51.952;6.146;2024-02-23T10:23:09;98944.91;;;7.02;100.00
29909;BME280;36247;51.952;6.146;2024-02-23T10:25:35;98962.47;;;6.94;100.00
29909;BME280;36247;51.952;6.146;2024-02-23T10:28:02;98958.94;;;7.04;100.00
29909;BME280;36247;51.952;6.146;2024-02-23T10:30:27;98964.16;;;7.16;100.00
29909;BME280;36247;51.952;6.146;2024-02-23T10:32:55;98970.25;;;7.40;100.00
29909;BME280;36247;51.952;6.146;2024-02-23T10:35:22;98965.88;;;7.30;100.00
29909;BME280;36247;51.952;6.146;2024-02-23T10:37:49;98983.50;;;7.17;100.00
29909;BME280;36247;51.952;6.146;2024-02-23T10:40:17;98973.81;;;7.20;100.00
29909;BME280;36247;51.952;6.146;2024-02-23T10:42:47;98980.84;;;7.26;100.00
29909;BME280;36247;51.952;6.146;2024-02-23T10:45:18;98993.13;;;7.15;100.00
29909;BME280;36247;51.952;6.146;2024-02-23T10:47:44;98993.16;;;7.05;100.00
29909;BME280;36247;51.952;6.146;2024-02-23T10:50:10;98999.28;;;7.07;100.00
29909;BME280;36247;51.952;6.146;2024-02-23T10:52:43;99001.91;;;7.07;100.00
29909;BME280;36247;51.952;6.146;2024-02-23T10:55:09;99005.47;;;7.00;100.00
29909;BME280;36247;51.952;6.146;2024-02-23T10:57:35;99010.72;;;7.06;100.00
29909;BME280;36247;51.952;6.146;2024-02-23T11:00:02;99016.00;;;7.03;100.00
29909;BME280;36247;51.952;6.146;2024-02-23T11:02:33;99025.63;;;6.97;100.00
29909;BME280;36247;51.952;6.146;2024-02-23T11:05:02;99032.66;;;6.92;100.00
29909;BME280;36247;51.952;6.146;2024-02-23T11:07:29;99015.97;;;7.11;100.00
29909;BME280;36247;51.952;6.146;2024-02-23T11:09:58;99016.00;;;7.02;100.00
29909;BME280;36247;51.952;6.146;2024-02-23T11:12:25;99008.06;;;7.17;100.00
29909;BME280;36247;51.952;6.146;2024-02-23T11:14:51;99020.38;;;7.12;100.00
29909;BME280;36247;51.952;6.146;2024-02-23T11:17:20;99007.19;;;7.23;100.00
29909;BME280;36247;51.952;6.146;2024-02-23T11:19:49;99004.47;;;7.43;100.00
29909;BME280;36247;51.952;6.146;2024-02-23T11:22:26;99008.91;;;7.35;100.00
29909;BME280;36247;51.952;6.146;2024-02-23T11:24:53;99023.84;;;7.30;100.00
29909;BME280;36247;51.952;6.146;2024-02-23T11:27:18;99008.00;;;7.36;100.00
29909;BME280;36247;51.952;6.146;2024-02-23T11:29:47;99010.66;;;7.34;100.00
29909;BME280;36247;51.952;6.146;2024-02-23T11:32:16;99028.19;;;7.43;100.00
29909;BME280;36247;51.952;6.146;2024-02-23T11:34:54;99025.59;;;7.24;100.00
29909;BME280;36247;51.952;6.146;2024-02-23T11:37:20;99028.25;;;7.24;100.00
29909;BME280;36247;51.952;6.146;2024-02-23T11:39:46;99012.41;;;7.34;100.00
29909;BME280;36247;51.952;6.146;2024-02-23T11:42:12;99018.56;;;7.30;100.00
29909;BME280;36247;51.952;6.146;2024-02-23T11:44:37;99038.75;;;7.32;100.00
29909;BME280;36247;51.952;6.146;2024-02-23T11:47:03;99019.44;;;7.33;100.00
29909;BME280;36247;51.952;6.146;2024-02-23T11:49:29;99029.09;;;7.34;100.00
29909;BME280;36247;51.952;6.146;2024-02-23T11:51:55;99031.72;;;7.37;100.00
29909;BME280;36247;51.952;6.146;2024-02-23T11:54:20;99018.53;;;7.37;100.00
29909;BME280;36247;51.952;6.146;2024-02-23T11:56:47;99018.56;;;7.42;100.00
29909;BME280;36247;51.952;6.146;2024-02-23T11:59:15;99022.94;;;7.35;100.00
29909;BME280;36247;51.952;6.146;2024-02-23T12:01:40;99029.06;;;7.48;100.00
29909;BME280;36247;51.952;6.146;2024-02-23T12:04:06;99033.44;;;7.51;100.00
29909;BME280;36247;51.952;6.146;2024-02-23T12:06:33;99015.84;;;7.62;100.00
29909;BME280;36247;51.952;6.146;2024-02-23T12:08:59;99014.63;;;8.33;100.00
29909;BME280;36247;51.952;6.146;2024-02-23T12:11:25;99026.31;;;7.84;100.00
29909;BME280;36247;51.952;6.146;2024-02-23T12:13:50;99021.94;;;7.81;100.00
29909;BME280;36247;51.952;6.146;2024-02-23T12:16:20;99048.31;;;7.78;100.00
29909;BME280;36247;51.952;6.146;2024-02-23T12:18:52;99027.22;;;7.78;100.00
29909;BME280;36247;51.952;6.146;2024-02-23T12:21:18;99046.56;;;7.72;100.00
29909;BME280;36247;51.952;6.146;2024-02-23T12:23:44;99031.63;;;7.67;100.00
29909;BME280;36247;51.952;6.146;2024-02-23T12:26:12;99035.19;;;7.58;100.00
29909;BME280;36247;51.952;6.146;2024-02-23T12:28:38;99037.81;;;7.61;100.00
29909;BME280;36247;51.952;6.146;2024-02-23T12:31:05;99031.69;;;7.54;100.00
29909;BME280;36247;51.952;6.146;2024-02-23T12:33:32;99034.31;;;7.57;100.00
29909;BME280;36247;51.952;6.146;2024-02-23T12:35:58;99035.16;;;7.72;100.00
29909;BME280;36247;51.952;6.146;2024-02-23T12:38:24;99029.88;;;7.64;100.00
29909;BME280;36247;51.952;6.146;2024-02-23T12:40:50;99038.69;;;7.60;100.00
29909;BME280;36247;51.952;6.146;2024-02-23T12:43:16;99037.81;;;7.69;100.00
29909;BME280;36247;51.952;6.146;2024-02-23T12:45:41;99038.69;;;7.65;100.00
29909;BME280;36247;51.952;6.146;2024-02-23T12:48:07;99029.88;;;7.66;100.00
29909;BME280;36247;51.952;6.146;2024-02-23T12:50:32;99027.22;;;7.80;100.00
29909;BME280;36247;51.952;6.146;2024-02-23T12:52:58;99037.75;;;7.80;100.00